Time;durP1;ratioP1;P1;durP2;ratioP2;P2;SDS_P1;SDS_P2;PMS_P1;PMS_P2;Temp;Humidity;BMP_temperature;BMP_pressure;BME280_temperature;BME280_humidity;BME280_pressure;Samples;Min_cycle;Max_cycle;Signal;HPM_P1;HPM_P2
2023/10/05 00:00:48;;;;;;;12.05;4.28;;;;;;;17.34;54.04;101689.94;679563;29;1400;-93
2023/10/05 00:01:56;;;;;;;9.88;4.13;;;;;;;17.29;53.86;101686.34;677275;29;1369;-90
2023/10/05 00:02:20;;;;;;;11.90;4.00;;;;;;;17.24;54.26;101691.56;679811;29;1268;-92
2023/10/05 00:02:40;;;;;;;9.57;3.97;;;;;;;17.21;54.15;101688.88;682816;29;1222;-91
2023/10/05 00:03:05;;;;;;;9.43;4.28;;;;;;;17.31;54.10;101691.63;684946;28;1348;-90
2023/10/05 00:03:26;;;;;;;9.52;4.25;;;;;;;17.25;54.38;101697.72;687248;28;1217;-90
2023/10/05 00:03:52;;;;;;;11.30;4.40;;;;;;;17.25;54.28;101690.69;687911;28;1197;-90
2023/10/05 00:04:16;;;;;;;8.55;4.10;;;;;;;17.31;54.12;101689.00;683866;28;1284;-90
2023/10/05 00:04:42;;;;;;;7.80;4.00;;;;;;;17.25;54.33;101687.16;685010;28;1257;-90
2023/10/05 00:05:04;;;;;;;7.07;3.63;;;;;;;17.22;54.16;101680.09;682395;28;1164;-88
2023/10/05 00:05:26;;;;;;;6.93;3.80;;;;;;;17.20;54.43;101680.91;680003;29;1411;-89
2023/10/05 00:05:48;;;;;;;7.30;4.32;;;;;;;17.21;54.30;101680.97;682551;29;1272;-90
2023/10/05 00:06:16;;;;;;;6.45;4.00;;;;;;;17.31;54.06;101689.00;687805;28;1371;-89
2023/10/05 00:06:42;;;;;;;7.30;3.95;;;;;;;17.24;54.34;101678.38;682208;29;934;-91
2023/10/05 00:07:05;;;;;;;7.85;3.90;;;;;;;17.28;54.12;101684.59;679675;29;1328;-92
2023/10/05 00:07:26;;;;;;;7.63;4.05;;;;;;;17.20;54.43;101676.50;679920;29;1250;-89
2023/10/05 00:07:47;;;;;;;12.38;4.10;;;;;;;17.22;54.10;101685.38;674923;29;1463;-90
2023/10/05 00:08:07;;;;;;;12.23;4.00;;;;;;;17.21;54.26;101677.41;677010;29;1243;-87
2023/10/05 00:08:28;;;;;;;11.50;4.07;;;;;;;17.16;54.42;101676.44;678929;29;1273;-91
2023/10/05 00:08:53;;;;;;;7.65;3.90;;;;;;;17.20;54.48;101681.78;677499;29;1335;-90
2023/10/05 00:09:17;;;;;;;7.57;3.53;;;;;;;17.19;54.30;101674.75;679967;29;1425;-89
2023/10/05 00:09:47;;;;;;;7.32;3.53;;;;;;;17.28;54.24;101683.69;682699;28;1281;-93
2023/10/05 00:10:10;;;;;;;7.30;4.10;;;;;;;17.21;54.33;101686.22;685132;28;1334;-92
2023/10/05 00:10:33;;;;;;;7.38;4.07;;;;;;;17.17;54.31;101679.13;682466;29;1371;-92
2023/10/05 00:10:58;;;;;;;6.32;3.55;;;;;;;17.18;54.46;101688.81;682684;29;856;-89
2023/10/05 00:11:30;;;;;;;6.97;3.53;;;;;;;17.23;54.49;101700.31;680081;29;1256;-89
2023/10/05 00:11:57;;;;;;;8.77;3.53;;;;;;;17.14;54.63;101686.97;685349;28;1361;-91
2023/10/05 00:12:22;;;;;;;8.05;3.40;;;;;;;17.19;54.55;101698.47;682631;28;1230;-92
2023/10/05 00:12:47;;;;;;;6.57;3.60;;;;;;;17.22;54.47;101690.63;682753;28;1975;-91
2023/10/05 00:13:08;;;;;;;7.38;3.90;;;;;;;17.16;54.40;101690.53;688882;28;1400;-91
2023/10/05 00:13:32;;;;;;;7.43;3.63;;;;;;;17.22;54.21;101690.63;687565;28;1418;-88
2023/10/05 00:13:58;;;;;;;8.60;3.20;;;;;;;17.29;54.19;101696.00;685312;28;1363;-88
2023/10/05 00:14:19;;;;;;;7.90;2.88;;;;;;;17.23;54.31;101687.13;687725;28;1261;-89
2023/10/05 00:14:40;;;;;;;7.28;3.30;;;;;;;17.21;54.33;101688.88;682672;28;1278;-89
2023/10/05 00:15:27;;;;;;;7.15;4.25;;;;;;;17.16;54.32;101698.44;680000;29;1272;-92
2023/10/05 00:15:48;;;;;;;7.43;4.00;;;;;;;17.19;54.47;101697.59;677635;29;1251;-91
2023/10/05 00:16:20;;;;;;;8.45;4.07;;;;;;;17.16;54.28;101695.81;677453;29;1385;-92
2023/10/05 00:16:44;;;;;;;7.20;3.78;;;;;;;17.18;54.23;101693.19;680129;29;1361;-91
2023/10/05 00:17:07;;;;;;;6.95;3.70;;;;;;;17.16;54.37;101695.81;677155;29;1381;-90
2023/10/05 00:17:29;;;;;;;7.50;4.00;;;;;;;17.16;54.43;101697.53;682136;29;1273;-92
2023/10/05 00:17:50;;;;;;;7.45;4.07;;;;;;;17.17;54.62;101702.84;685531;28;1286;-92
2023/10/05 00:18:15;;;;;;;9.07;4.07;;;;;;;17.13;54.38;101701.91;682386;28;1244;-90
2023/10/05 00:18:36;;;;;;;8.98;3.72;;;;;;;17.13;54.46;101693.09;682079;28;1382;-88
2023/10/05 00:18:57;;;;;;;8.50;3.50;;;;;;;17.16;54.52;101695.81;682846;29;1165;-91
2023/10/05 00:19:21;;;;;;;7.57;3.70;;;;;;;17.16;54.59;101702.81;682378;28;1163;-91
2023/10/05 00:19:41;;;;;;;6.55;3.80;;;;;;;17.15;54.37;101694.00;685337;28;1259;-90
2023/10/05 00:20:14;;;;;;;7.30;4.00;;;;;;;17.13;54.41;101690.47;685204;28;1166;-92
2023/10/05 00:20:38;;;;;;;9.15;4.00;;;;;;;17.18;54.35;101693.19;680064;29;992;-91
2023/10/05 00:21:00;;;;;;;9.77;3.83;;;;;;;17.15;54.48;101687.88;682743;29;1046;-91
2023/10/05 00:21:21;;;;;;;7.18;3.60;;;;;;;17.19;54.28;101695.84;683134;28;1306;-91
2023/10/05 00:21:50;;;;;;;7.00;3.42;;;;;;;17.21;54.38;101701.16;680018;29;1241;-91
2023/10/05 00:22:11;;;;;;;8.27;3.38;;;;;;;17.17;54.40;101689.66;679823;29;1023;-93
2023/10/05 00:22:32;;;;;;;8.27;3.67;;;;;;;17.17;54.47;101689.66;682384;29;1142;-90
2023/10/05 00:22:57;;;;;;;7.10;3.40;;;;;;;17.16;54.38;101685.25;677314;29;1370;-91
2023/10/05 00:23:19;;;;;;;5.60;3.40;;;;;;;17.13;54.54;101693.09;684697;28;1250;-91
2023/10/05 00:23:41;;;;;;;5.95;3.30;;;;;;;17.16;54.50;101687.91;682585;28;1200;-91
2023/10/05 00:24:06;;;;;;;6.60;3.30;;;;;;;17.18;54.39;101691.44;679896;29;1213;-91
2023/10/05 00:24:50;;;;;;;6.90;3.57;;;;;;;17.11;54.57;101692.22;682709;28;962;-91
2023/10/05 00:25:10;;;;;;;6.57;3.40;;;;;;;17.14;54.44;101692.25;687594;28;1379;-90
2023/10/05 00:25:39;;;;;;;6.40;3.65;;;;;;;17.07;54.42;101682.44;687426;28;1247;-92
2023/10/05 00:26:06;;;;;;;6.80;3.72;;;;;;;17.11;54.51;101698.34;674357;29;1269;-92
2023/10/05 00:26:29;;;;;;;6.82;3.80;;;;;;;17.12;54.49;101692.25;679939;29;1347;-89
2023/10/05 00:26:50;;;;;;;10.60;4.18;;;;;;;17.16;54.30;101697.53;677478;29;1294;-88
2023/10/05 00:27:13;;;;;;;9.83;3.70;;;;;;;17.12;54.48;101694.88;677670;29;1169;-90
2023/10/05 00:27:35;;;;;;;9.45;3.45;;;;;;;17.12;54.46;101699.25;677271;29;1414;-90
2023/10/05 00:27:57;;;;;;;6.35;3.67;;;;;;;17.07;54.51;101686.00;680626;29;1321;-91
2023/10/05 00:28:23;;;;;;;9.23;4.15;;;;;;;17.07;54.60;101691.28;682590;29;1211;-91
2023/10/05 00:28:53;;;;;;;8.90;4.10;;;;;;;17.09;54.47;101699.22;683059;28;1369;-88
2023/10/05 00:29:39;;;;;;;9.85;3.67;;;;;;;17.12;54.48;101699.25;680337;29;1342;-91
2023/10/05 00:30:00;;;;;;;6.78;3.80;;;;;;;17.16;54.32;101693.19;679855;29;1233;-94
2023/10/05 00:30:21;;;;;;;6.93;3.80;;;;;;;17.10;54.43;101688.66;682152;29;1354;-90
2023/10/05 00:30:43;;;;;;;7.60;3.90;;;;;;;17.12;54.51;101696.63;680656;29;1376;-93
2023/10/05 00:31:06;;;;;;;6.63;3.75;;;;;;;17.15;54.45;101691.38;682436;29;1292;-91
2023/10/05 00:31:26;;;;;;;6.70;3.70;;;;;;;17.16;54.41;101700.19;688611;28;1413;-92
2023/10/05 00:31:47;;;;;;;6.63;3.70;;;;;;;17.22;54.16;101705.59;685753;28;1334;-93
2023/10/05 00:32:15;;;;;;;8.63;3.70;;;;;;;17.18;54.29;101701.09;685371;28;1227;-90
2023/10/05 00:32:39;;;;;;;8.05;3.30;;;;;;;17.12;54.32;101691.34;683211;28;2032;-92
2023/10/05 00:33:00;;;;;;;12.15;3.60;;;;;;;17.16;54.16;101694.91;682846;28;1189;-92
2023/10/05 00:33:23;;;;;;;11.60;3.80;;;;;;;17.18;54.28;101701.09;682951;29;1234;-92
2023/10/05 00:33:45;;;;;;;11.90;4.10;;;;;;;17.18;54.21;101699.34;682549;29;1394;-87
2023/10/05 00:34:12;;;;;;;9.13;4.00;;;;;;;17.24;54.30;101695.94;678053;29;1352;-92
2023/10/05 00:34:34;;;;;;;10.13;4.13;;;;;;;17.19;54.23;101702.84;682914;28;1295;-88
2023/10/05 00:35:14;;;;;;;8.57;3.92;;;;;;;17.19;54.37;101705.50;683244;29;1381;-89
2023/10/05 00:35:37;;;;;;;6.57;3.67;;;;;;;17.17;54.32;101697.59;680490;29;1434;-89
2023/10/05 00:35:57;;;;;;;6.88;3.90;;;;;;;17.23;54.02;101708.22;683184;29;1435;-89
2023/10/05 00:36:18;;;;;;;10.60;4.10;;;;;;;17.23;54.18;101702.09;682805;29;1207;-89
2023/10/05 00:36:43;;;;;;;12.70;4.40;;;;;;;17.18;54.21;101698.44;685657;28;1290;-92
2023/10/05 00:37:06;;;;;;;12.00;4.30;;;;;;;17.13;54.43;101691.38;680295;29;1217;-90
2023/10/05 00:37:29;;;;;;;8.15;4.15;;;;;;;17.17;54.54;101697.59;680531;29;1269;-92
2023/10/05 00:37:50;;;;;;;6.10;3.70;;;;;;;17.18;54.54;101704.63;677816;29;1222;-92
2023/10/05 00:38:16;;;;;;;6.22;3.83;;;;;;;17.10;54.48;101701.84;675131;29;1393;-92
2023/10/05 00:38:37;;;;;;;6.88;3.67;;;;;;;17.09;54.47;101696.56;680599;29;1272;-91
2023/10/05 00:39:01;;;;;;;10.32;3.70;;;;;;;17.08;54.56;101697.44;675064;29;1342;-90
2023/10/05 00:39:24;;;;;;;10.85;3.90;;;;;;;17.12;54.36;101708.06;674753;29;1286;-90
2023/10/05 00:39:48;;;;;;;9.15;3.72;;;;;;;17.05;54.69;101690.38;679808;29;1384;-90
2023/10/05 00:40:11;;;;;;;9.00;3.75;;;;;;;17.15;54.40;101704.56;679488;29;1267;-88
2023/10/05 00:41:04;;;;;;;8.80;4.03;;;;;;;17.12;54.80;101704.53;680543;29;1200;-87
2023/10/05 00:41:26;;;;;;;5.68;3.90;;;;;;;17.11;54.56;101710.66;675008;29;1234;-87
2023/10/05 00:42:00;;;;;;;6.32;3.60;;;;;;;17.10;54.49;101706.25;680393;29;1367;-90
2023/10/05 00:42:21;;;;;;;6.80;3.50;;;;;;;17.04;54.76;101704.41;682881;29;1378;-89
2023/10/05 00:42:42;;;;;;;6.75;3.88;;;;;;;17.07;54.68;101701.81;682918;28;1165;-88
2023/10/05 00:43:24;;;;;;;8.13;4.30;;;;;;;17.08;54.61;101702.72;682528;29;1326;-89
2023/10/05 00:43:46;;;;;;;9.65;4.55;;;;;;;17.07;54.79;101706.19;682996;28;1230;-90
2023/10/05 00:44:07;;;;;;;8.38;4.40;;;;;;;17.05;54.81;101694.75;677293;29;1259;-88
2023/10/05 00:44:30;;;;;;;10.05;4.60;;;;;;;17.13;54.60;101706.28;683191;28;1012;-89
2023/10/05 00:44:51;;;;;;;9.73;4.00;;;;;;;17.10;54.69;101700.97;685365;28;1401;-92
2023/10/05 00:45:13;;;;;;;11.55;4.13;;;;;;;17.06;54.75;101694.78;680332;29;1471;-90
2023/10/05 00:45:38;;;;;;;8.55;4.00;;;;;;;17.09;54.61;101691.31;682242;29;1282;-90
2023/10/05 00:46:03;;;;;;;6.35;3.95;;;;;;;17.09;54.60;101700.09;683167;28;1176;-88
2023/10/05 00:46:24;;;;;;;7.47;3.50;;;;;;;17.10;54.57;101703.63;677305;29;1251;-89
2023/10/05 00:46:49;;;;;;;8.73;3.70;;;;;;;17.08;54.47;101697.44;677777;29;1318;-89
2023/10/05 00:47:13;;;;;;;12.05;4.55;;;;;;;17.10;54.50;101701.84;676417;29;2093;-90
2023/10/05 00:47:34;;;;;;;10.13;4.80;;;;;;;17.11;54.71;101701.00;677676;29;1428;-90
2023/10/05 00:48:02;;;;;;;8.30;4.60;;;;;;;17.09;54.61;101701.84;675137;29;1280;-87
2023/10/05 00:48:34;;;;;;;8.57;4.50;;;;;;;17.13;54.70;101703.66;680225;29;1408;-91
2023/10/05 00:49:17;;;;;;;14.55;4.40;;;;;;;17.07;54.87;101698.28;680564;29;1350;-89
2023/10/05 00:50:11;;;;;;;6.90;4.05;;;;;;;17.04;54.72;101703.53;682903;28;1328;-88
2023/10/05 00:50:35;;;;;;;6.40;3.83;;;;;;;16.98;54.92;101692.00;682598;28;1238;-89
2023/10/05 00:50:59;;;;;;;6.22;3.72;;;;;;;17.11;54.94;101702.75;677847;29;1169;-88
2023/10/05 00:51:26;;;;;;;6.80;3.65;;;;;;;17.03;55.04;101697.34;679970;29;1252;-89
2023/10/05 00:51:56;;;;;;;6.75;3.90;;;;;;;17.03;54.91;101694.72;682855;29;1358;-90
2023/10/05 00:52:18;;;;;;;7.60;4.20;;;;;;;17.11;54.77;101701.00;682311;29;1334;-89
2023/10/05 00:52:39;;;;;;;8.25;4.35;;;;;;;17.08;54.73;101686.91;680332;29;2021;-91
2023/10/05 00:53:00;;;;;;;9.82;4.55;;;;;;;17.11;54.63;101693.06;685382;28;1302;-90
2023/10/05 00:53:21;;;;;;;9.57;4.32;;;;;;;17.08;54.59;101686.91;682257;29;1422;-89
2023/10/05 00:53:48;;;;;;;9.05;3.90;;;;;;;17.14;54.61;101702.78;680570;29;1228;-88
2023/10/05 00:54:16;;;;;;;8.70;3.70;;;;;;;17.12;54.61;101691.34;681666;29;1381;-88
2023/10/05 00:54:44;;;;;;;8.43;3.88;;;;;;;17.11;54.52;101693.06;677580;29;1199;-89
2023/10/05 00:55:16;;;;;;;11.10;4.10;;;;;;;17.08;54.79;101695.69;680105;29;1373;-87
2023/10/05 00:55:39;;;;;;;12.55;4.50;;;;;;;17.06;54.60;101688.59;682840;29;1229;-89
2023/10/05 00:56:15;;;;;;;11.18;4.63;;;;;;;17.04;54.89;101687.69;682998;28;1196;-88
2023/10/05 00:56:38;;;;;;;8.70;4.20;;;;;;;17.10;54.78;101690.44;683182;28;1193;-89
2023/10/05 00:57:09;;;;;;;5.97;3.58;;;;;;;17.07;54.78;101690.38;683172;28;1290;-92
2023/10/05 00:57:30;;;;;;;7.38;3.40;;;;;;;17.13;54.56;101695.75;682365;28;1392;-92
2023/10/05 00:57:52;;;;;;;8.73;3.75;;;;;;;17.11;54.73;101694.84;685420;28;1339;-89
2023/10/05 00:58:14;;;;;;;9.40;4.30;;;;;;;17.03;54.60;101684.16;677381;29;1391;-90
2023/10/05 00:58:43;;;;;;;7.00;4.00;;;;;;;17.02;54.79;101687.66;679747;29;1492;-89
2023/10/05 00:59:09;;;;;;;5.75;3.67;;;;;;;16.96;55.07;101691.09;679041;29;1340;-90
2023/10/05 00:59:31;;;;;;;7.10;4.00;;;;;;;17.01;55.03;101698.22;684817;28;1217;-89
2023/10/05 01:00:48;;;;;;;10.95;4.70;;;;;;;17.05;54.84;101693.00;682513;29;1464;-89
2023/10/05 01:01:27;;;;;;;9.75;4.57;;;;;;;16.95;55.08;101684.06;683021;29;1099;-90
2023/10/05 01:02:21;;;;;;;6.73;4.20;;;;;;;16.98;55.12;101686.72;683081;29;1221;-92
2023/10/05 01:03:10;;;;;;;8.00;4.50;;;;;;;16.97;55.26;101690.22;677917;29;1462;-94
2023/10/05 01:03:33;;;;;;;6.70;4.30;;;;;;;16.98;55.11;101684.09;680344;29;1359;-89
2023/10/05 01:05:15;;;;;;;8.57;4.03;;;;;;;17.05;54.94;101682.44;674751;29;1427;-89
2023/10/05 01:05:47;;;;;;;8.70;4.00;;;;;;;17.04;54.76;101679.78;677570;29;1364;-92
2023/10/05 01:07:00;;;;;;;7.38;4.38;;;;;;;16.97;55.06;101684.09;672538;29;1275;-88
2023/10/05 01:07:17;;;;;;;8.32;4.30;;;;;;;17.03;54.75;101684.16;675184;29;1097;-89
2023/10/05 01:07:56;;;;;;;10.50;4.80;;;;;;;17.05;54.91;101686.81;682338;29;1354;-87
2023/10/05 01:08:23;;;;;;;10.68;4.50;;;;;;;16.95;54.98;101678.78;677411;29;1116;-90
2023/10/05 01:08:54;;;;;;;8.43;4.20;;;;;;;16.99;55.00;101670.03;680379;29;1199;-89
2023/10/05 01:10:56;;;;;;;6.18;3.85;;;;;;;17.01;54.66;101674.47;683919;28;913;-88
2023/10/05 01:11:19;;;;;;;6.53;3.80;;;;;;;17.06;54.78;101683.31;687069;28;1440;-88
2023/10/05 01:11:51;;;;;;;8.07;4.03;;;;;;;17.03;54.87;101683.28;680188;29;1311;-88
2023/10/05 01:12:25;;;;;;;8.73;4.13;;;;;;;17.04;54.84;101680.69;680328;29;1193;-93
2023/10/05 01:12:49;;;;;;;6.68;3.70;;;;;;;17.10;54.79;101693.06;685762;28;1922;-91
2023/10/05 01:13:28;;;;;;;5.90;3.58;;;;;;;17.07;54.88;101678.09;682767;29;1409;-90
2023/10/05 01:13:49;;;;;;;6.85;4.00;;;;;;;17.07;54.87;101690.38;680636;29;1422;-91
2023/10/05 01:14:14;;;;;;;7.07;3.95;;;;;;;17.06;54.94;101683.31;685393;28;1265;-92
2023/10/05 01:14:56;;;;;;;6.40;3.85;;;;;;;17.06;55.20;101680.69;679632;29;1338;-88
2023/10/05 01:15:30;;;;;;;6.38;3.60;;;;;;;17.02;54.98;101676.25;682428;29;1265;-89
2023/10/05 01:15:54;;;;;;;6.82;3.63;;;;;;;17.04;54.93;101680.69;685231;28;1301;-90
2023/10/05 01:16:19;;;;;;;8.93;3.60;;;;;;;17.06;54.87;101685.97;682754;29;1402;-90
2023/10/05 01:16:40;;;;;;;9.27;3.60;;;;;;;17.03;54.64;101680.66;682963;29;1169;-87
2023/10/05 01:17:01;;;;;;;8.20;3.55;;;;;;;16.97;55.11;101684.94;682994;29;1134;-89
2023/10/05 01:17:25;;;;;;;7.65;3.42;;;;;;;17.02;54.83;101666.56;682440;29;1224;-89
2023/10/05 01:17:52;;;;;;;9.48;3.40;;;;;;;17.03;54.94;101685.94;682737;29;1312;-91
2023/10/05 01:18:13;;;;;;;8.35;3.55;;;;;;;16.96;55.08;101674.41;679865;29;1384;-90
2023/10/05 01:18:36;;;;;;;6.45;3.55;;;;;;;16.97;55.04;101678.81;679888;29;1226;-89
2023/10/05 01:18:56;;;;;;;7.53;3.72;;;;;;;17.07;54.92;101685.09;677401;29;1280;-87
2023/10/05 01:19:20;;;;;;;6.80;3.90;;;;;;;17.08;54.66;101692.16;680059;29;1316;-88
2023/10/05 01:19:42;;;;;;;6.68;4.05;;;;;;;17.09;54.82;101684.25;682790;29;1590;-89
2023/10/05 01:20:12;;;;;;;8.85;4.05;;;;;;;17.05;54.76;101682.44;685623;28;1329;-90
2023/10/05 01:20:37;;;;;;;12.70;3.80;;;;;;;17.06;54.80;101688.59;685746;28;1312;-92
2023/10/05 01:21:01;;;;;;;17.10;3.95;;;;;;;17.05;54.74;101684.19;682836;29;1344;-89
2023/10/05 01:21:26;;;;;;;17.42;4.20;;;;;;;17.08;54.90;101697.44;679608;29;1269;-86
2023/10/05 01:21:51;;;;;;;9.07;3.83;;;;;;;17.10;54.95;101691.31;680498;29;789;-91
2023/10/05 01:22:16;;;;;;;7.53;3.78;;;;;;;17.10;54.74;101685.16;679948;29;1289;-89
2023/10/05 01:22:45;;;;;;;8.13;4.18;;;;;;;17.10;54.90;101685.16;677300;29;1280;-87
2023/10/05 01:23:06;;;;;;;8.02;4.30;;;;;;;17.13;54.67;101687.84;679359;29;1267;-90
2023/10/05 01:23:37;;;;;;;7.40;4.10;;;;;;;17.14;54.82;101700.16;689076;28;1284;-86
2023/10/05 01:24:02;;;;;;;6.85;3.80;;;;;;;17.13;54.63;101686.09;682732;29;1316;-89
2023/10/05 01:24:29;;;;;;;8.25;3.60;;;;;;;17.07;54.71;101685.09;681601;29;1369;-88
2023/10/05 01:24:50;;;;;;;8.93;3.60;;;;;;;17.13;54.78;101694.00;681958;29;1148;-91
2023/10/05 01:25:14;;;;;;;8.05;3.55;;;;;;;17.12;54.76;101683.44;680151;29;1223;-90
2023/10/05 01:25:36;;;;;;;9.32;3.72;;;;;;;17.10;54.60;101680.75;680564;29;1403;-90
2023/10/05 01:25:57;;;;;;;8.75;3.50;;;;;;;17.07;54.79;101674.53;685782;28;1398;-91
2023/10/05 01:26:18;;;;;;;8.48;3.85;;;;;;;17.10;54.51;101679.88;687816;28;1173;-90
2023/10/05 01:26:40;;;;;;;6.93;4.18;;;;;;;17.10;54.63;101685.16;683065;29;1313;-89
2023/10/05 01:27:04;;;;;;;9.30;4.60;;;;;;;17.10;54.71;101686.03;679734;29;1342;-87
2023/10/05 01:27:29;;;;;;;9.52;4.03;;;;;;;17.14;54.73;101684.31;684682;28;1188;-90
2023/10/05 01:27:50;;;;;;;8.25;3.50;;;;;;;17.13;54.71;101682.56;685817;28;1371;-88
2023/10/05 01:28:11;;;;;;;6.10;3.33;;;;;;;17.07;54.73;101674.53;682881;28;1271;-89
2023/10/05 01:28:32;;;;;;;6.80;3.63;;;;;;;17.13;54.67;101682.56;687751;28;1417;-89
2023/10/05 01:28:53;;;;;;;6.50;3.60;;;;;;;17.09;54.57;101683.38;682788;29;1287;-88
2023/10/05 01:29:17;;;;;;;7.73;3.77;;;;;;;17.08;54.73;101686.91;685184;28;1161;-86
2023/10/05 01:29:37;;;;;;;8.48;3.90;;;;;;;17.07;54.75;101677.19;685523;28;1259;-91
2023/10/05 01:29:59;;;;;;;8.63;4.05;;;;;;;17.06;54.82;101684.22;683021;29;1295;-87
2023/10/05 01:30:21;;;;;;;8.10;3.80;;;;;;;17.12;54.71;101691.34;682978;28;1372;-87
2023/10/05 01:30:41;;;;;;;7.45;3.53;;;;;;;17.03;54.85;101686.78;682845;28;1377;-89
2023/10/05 01:31:07;;;;;;;8.33;3.70;;;;;;;17.01;54.90;101680.63;682809;29;1299;-89
2023/10/05 01:31:27;;;;;;;9.48;3.78;;;;;;;17.06;54.83;101688.59;685351;28;1404;-88
2023/10/05 01:31:49;;;;;;;10.35;4.20;;;;;;;17.06;54.84;101700.03;687980;28;1215;-89
2023/10/05 01:32:15;;;;;;;10.43;4.20;;;;;;;17.01;54.94;101680.63;682883;29;1326;-92
2023/10/05 01:32:42;;;;;;;8.43;4.20;;;;;;;16.98;54.79;101676.19;688129;28;1969;-88
2023/10/05 01:33:03;;;;;;;9.80;3.80;;;;;;;17.04;54.81;101688.59;680064;29;1390;-90
2023/10/05 01:33:25;;;;;;;10.82;3.90;;;;;;;17.00;54.84;101681.47;680197;29;1330;-88
2023/10/05 01:33:46;;;;;;;9.35;4.03;;;;;;;17.05;54.97;101686.81;682964;29;1218;-89
2023/10/05 01:34:08;;;;;;;9.80;4.20;;;;;;;16.97;54.94;101679.69;680254;29;1651;-86
2023/10/05 01:34:28;;;;;;;12.30;4.38;;;;;;;17.03;55.11;101686.78;679889;29;1404;-89
2023/10/05 01:34:50;;;;;;;11.77;4.25;;;;;;;16.95;54.96;101676.13;682885;29;1159;-89
2023/10/05 01:35:15;;;;;;;9.63;3.90;;;;;;;17.04;55.06;101683.31;685472;28;1241;-90
2023/10/05 01:35:41;;;;;;;8.07;3.80;;;;;;;17.00;54.84;101686.75;682363;28;1309;-90
2023/10/05 01:36:06;;;;;;;8.15;4.00;;;;;;;16.96;55.05;101688.47;680035;29;1317;-89
2023/10/05 01:36:30;;;;;;;7.95;3.80;;;;;;;16.99;54.97;101679.72;678668;29;1342;-90
2023/10/05 01:36:53;;;;;;;8.73;3.90;;;;;;;17.03;54.97;101686.78;683014;29;1272;-88
2023/10/05 01:37:16;;;;;;;7.47;3.65;;;;;;;16.99;55.00;101688.50;687914;28;1363;-88
2023/10/05 01:37:41;;;;;;;11.13;4.00;;;;;;;16.98;55.00;101689.34;682449;28;1447;-90
2023/10/05 01:38:02;;;;;;;11.68;4.03;;;;;;;16.92;55.04;101686.66;678426;28;1435;-89
2023/10/05 01:38:24;;;;;;;11.25;4.03;;;;;;;16.98;55.08;101692.00;682448;29;1370;-90
2023/10/05 01:38:45;;;;;;;8.40;3.70;;;;;;;16.94;54.97;101690.19;683110;28;1605;-88
2023/10/05 01:39:09;;;;;;;8.18;3.70;;;;;;;16.89;55.03;101681.31;687310;28;1567;-89
2023/10/05 01:39:35;;;;;;;8.43;3.90;;;;;;;17.01;55.06;101691.16;685260;28;1088;-92
2023/10/05 01:40:45;;;;;;;12.55;3.88;;;;;;;16.99;54.77;101680.59;677541;28;1320;-89
2023/10/05 01:41:20;;;;;;;7.60;3.90;;;;;;;17.01;54.88;101687.66;680212;29;1537;-88
2023/10/05 01:41:41;;;;;;;7.28;3.80;;;;;;;16.97;54.92;101678.81;680232;29;1342;-89
2023/10/05 01:42:05;;;;;;;7.80;3.97;;;;;;;17.00;54.96;101684.13;680280;29;1319;-91
2023/10/05 01:42:29;;;;;;;7.95;3.80;;;;;;;16.94;54.84;101676.09;683766;28;1258;-91
2023/10/05 01:42:52;;;;;;;10.95;3.75;;;;;;;16.99;55.12;101691.13;682308;29;1328;-90
2023/10/05 01:43:12;;;;;;;11.95;4.00;;;;;;;16.98;54.84;101694.63;682633;29;1274;-90
2023/10/05 01:43:36;;;;;;;11.60;3.65;;;;;;;16.97;55.02;101695.50;682542;29;1161;-88
2023/10/05 01:44:00;;;;;;;6.80;3.40;;;;;;;16.93;55.04;101683.16;677659;29;1466;-89
2023/10/05 01:44:21;;;;;;;6.20;3.38;;;;;;;16.97;55.16;101687.59;684848;28;1301;-91
2023/10/05 01:44:48;;;;;;;7.53;3.60;;;;;;;16.93;55.03;101696.34;682935;29;1506;-91
2023/10/05 01:45:23;;;;;;;9.02;3.55;;;;;;;16.98;55.01;101692.00;679695;29;1333;-90
2023/10/05 01:45:45;;;;;;;8.38;3.75;;;;;;;16.96;55.17;101687.59;682768;28;1297;-87
2023/10/05 01:46:10;;;;;;;9.82;4.00;;;;;;;16.97;55.01;101687.59;682202;28;1296;-89
2023/10/05 01:46:36;;;;;;;9.25;3.85;;;;;;;17.01;54.95;101696.44;680088;29;1272;-90
2023/10/05 01:46:58;;;;;;;7.50;3.60;;;;;;;17.01;55.08;101690.28;682437;29;1416;-89
2023/10/05 01:47:22;;;;;;;6.13;3.75;;;;;;;17.05;55.05;101694.75;680060;29;1347;-88
2023/10/05 01:47:46;;;;;;;6.20;3.70;;;;;;;17.01;55.00;101680.63;680261;29;1267;-89
2023/10/05 01:48:13;;;;;;;6.82;3.70;;;;;;;17.01;54.94;101685.03;674795;29;1535;-88
2023/10/05 01:48:35;;;;;;;8.45;3.85;;;;;;;16.97;55.09;101682.31;683381;28;1568;-87
2023/10/05 01:48:56;;;;;;;9.73;4.20;;;;;;;17.02;54.71;101692.06;685696;28;1881;-89
2023/10/05 01:49:18;;;;;;;9.68;4.22;;;;;;;16.97;54.90;101682.31;679446;29;1274;-89
2023/10/05 01:49:40;;;;;;;7.18;3.53;;;;;;;17.09;54.96;101693.94;680082;29;1310;-90
2023/10/05 01:50:01;;;;;;;8.80;3.22;;;;;;;17.06;55.00;101688.59;682650;29;1367;-90
2023/10/05 01:50:27;;;;;;;8.30;3.10;;;;;;;17.06;54.96;101688.59;685468;28;1247;-90
2023/10/05 01:50:50;;;;;;;5.53;3.30;;;;;;;16.99;54.99;101688.50;688214;28;1277;-90
2023/10/05 01:51:14;;;;;;;5.65;3.35;;;;;;;17.00;55.04;101692.03;685505;28;1340;-88
2023/10/05 01:51:38;;;;;;;6.20;3.50;;;;;;;16.95;55.01;101686.69;682698;29;1399;-90
2023/10/05 01:52:02;;;;;;;6.97;3.70;;;;;;;16.95;55.29;101691.97;688334;28;1291;-87
2023/10/05 01:52:23;;;;;;;6.93;3.85;;;;;;;16.99;54.92;101687.63;679076;29;1388;-90
2023/10/05 01:52:45;;;;;;;7.03;3.80;;;;;;;17.04;54.89;101695.59;687554;28;1927;-91
2023/10/05 01:53:18;;;;;;;8.20;4.00;;;;;;;17.04;55.12;101685.06;682045;28;1237;-85
2023/10/05 01:53:40;;;;;;;9.00;4.10;;;;;;;16.96;55.10;101691.09;682979;28;1389;-90
2023/10/05 01:54:11;;;;;;;9.40;3.90;;;;;;;16.98;55.05;101681.44;685522;28;1378;-88
2023/10/05 01:54:34;;;;;;;7.20;3.40;;;;;;;16.96;55.06;101687.59;680116;29;1124;-93
2023/10/05 01:54:55;;;;;;;6.32;3.10;;;;;;;16.90;55.45;101683.06;682867;28;1327;-91
2023/10/05 01:55:18;;;;;;;5.40;3.13;;;;;;;16.93;55.30;101683.16;679638;29;1369;-87
2023/10/05 01:55:39;;;;;;;5.45;3.53;;;;;;;16.99;55.11;101690.25;680452;29;1261;-88
2023/10/05 01:56:00;;;;;;;5.85;3.80;;;;;;;16.92;55.14;101673.47;674925;29;1379;-88
2023/10/05 01:56:22;;;;;;;5.90;3.85;;;;;;;16.95;55.00;101676.13;677804;29;1192;-88
2023/10/05 01:56:44;;;;;;;7.82;3.80;;;;;;;17.02;54.99;101681.53;685796;28;1417;-89
2023/10/05 01:57:08;;;;;;;9.45;3.75;;;;;;;17.03;54.98;101672.75;685368;28;1279;-90
2023/10/05 01:57:31;;;;;;;8.05;3.70;;;;;;;16.98;55.40;101684.09;675030;29;1389;-89
2023/10/05 01:57:54;;;;;;;7.75;3.95;;;;;;;17.03;54.99;101673.59;682798;29;1374;-91
2023/10/05 01:58:24;;;;;;;5.82;3.70;;;;;;;17.01;54.97;101679.75;680394;29;1220;-91
2023/10/05 01:58:50;;;;;;;5.55;3.70;;;;;;;16.98;55.07;101681.44;683033;29;1311;-89
2023/10/05 01:59:21;;;;;;;8.85;3.90;;;;;;;17.03;54.97;101697.34;685479;28;1313;-94
2023/10/05 01:59:43;;;;;;;8.82;3.80;;;;;;;17.00;55.02;101694.66;680064;29;1391;-90
2023/10/05 02:00:14;;;;;;;5.80;3.50;;;;;;;16.97;55.11;101679.69;685396;28;1511;-89
2023/10/05 02:00:37;;;;;;;9.45;3.47;;;;;;;16.98;55.04;101678.81;679796;29;1271;-90
2023/10/05 02:00:58;;;;;;;11.15;3.97;;;;;;;17.00;55.09;101684.13;688399;28;1417;-89
2023/10/05 02:01:27;;;;;;;10.27;3.97;;;;;;;17.01;55.08;101685.03;685881;28;1319;-89
2023/10/05 02:01:48;;;;;;;6.95;3.63;;;;;;;17.03;55.02;101691.19;688279;28;1438;-86
2023/10/05 02:02:15;;;;;;;6.78;3.53;;;;;;;16.95;55.22;101685.78;682757;28;1284;-92
2023/10/05 02:02:36;;;;;;;7.00;3.40;;;;;;;16.90;55.27;101672.53;682548;28;1411;-91
2023/10/05 02:04:51;;;;;;;5.80;3.33;;;;;;;16.95;55.03;101675.25;688033;28;1337;-93
2023/10/05 02:05:14;;;;;;;5.90;3.27;;;;;;;16.93;55.35;101677.88;682394;29;1488;-91
2023/10/05 02:05:36;;;;;;;6.80;3.35;;;;;;;16.90;55.29;101680.44;679720;29;1254;-90
2023/10/05 02:06:04;;;;;;;7.82;3.50;;;;;;;16.94;55.12;101684.00;685737;28;1121;-91
2023/10/05 02:06:28;;;;;;;7.93;3.60;;;;;;;16.92;55.25;101676.09;681289;29;1297;-91
2023/10/05 02:06:49;;;;;;;6.80;3.63;;;;;;;16.89;55.16;101676.03;679855;29;1328;-90
2023/10/05 02:07:15;;;;;;;6.35;3.70;;;;;;;16.94;55.12;101673.47;682718;29;1307;-91
2023/10/05 02:07:36;;;;;;;7.32;3.97;;;;;;;16.96;55.20;101680.53;685100;28;1282;-93